createdAt,value
2023-04-24T00:01:32.519Z,98921.28
2023-04-24T00:03:08.289Z,98917.94
2023-04-24T00:04:42.090Z,98911.09
2023-04-24T00:06:15.437Z,98911.22
2023-04-24T00:07:48.756Z,98912.94
2023-04-24T00:09:22.389Z,98914.69
2023-04-24T00:10:55.709Z,98919.81
2023-04-24T00:12:29.252Z,98914.47
2023-04-24T00:14:02.469Z,98915.22
2023-04-24T00:15:36.290Z,98917.72
2023-04-24T00:17:08.530Z,98907.03
2023-04-24T00:18:43.226Z,98903.47
2023-04-24T00:20:16.838Z,98901.69
2023-04-24T00:21:51.285Z,98902.56
2023-04-24T00:23:24.489Z,98908.56
2023-04-24T00:24:57.691Z,98912.88
2023-04-24T00:26:31.057Z,98903.13
2023-04-24T00:28:04.511Z,98911.91
2023-04-24T00:29:37.715Z,98905.22
2023-04-24T00:31:10.899Z,98913.22
2023-04-24T00:32:44.319Z,98901.94
2023-04-24T00:34:19.408Z,98902.25
2023-04-24T00:35:53.253Z,98911.22
2023-04-24T00:37:26.493Z,98907.00
2023-04-24T00:38:59.771Z,98906.50
2023-04-24T00:40:33.309Z,98903.31
2023-04-24T00:42:07.449Z,98914.03
2023-04-24T00:43:41.758Z,98912.22
2023-04-24T00:45:14.272Z,98919.03
2023-04-24T00:46:52.902Z,98919.03
2023-04-24T00:48:27.617Z,98915.41
2023-04-24T00:50:04.023Z,98915.31
2023-04-24T00:51:37.780Z,98922.19
2023-04-24T00:53:11.642Z,98923.91
2023-04-24T00:54:44.878Z,98923.81
2023-04-24T00:56:18.133Z,98920.28
2023-04-24T00:57:51.938Z,98911.69
2023-04-24T00:59:25.496Z,98911.75
2023-04-24T01:00:58.791Z,98904.88
2023-04-24T01:02:32.293Z,98898.00
2023-04-24T01:04:06.037Z,98901.44
2023-04-24T01:05:41.388Z,98907.72
2023-04-24T01:07:14.541Z,98913.03
2023-04-24T01:08:48.780Z,98917.38
2023-04-24T01:10:22.115Z,98909.50
2023-04-24T01:11:56.242Z,98917.56
2023-04-24T01:13:29.800Z,98898.63
2023-04-24T01:15:02.187Z,98915.13
2023-04-24T01:16:35.687Z,98911.50
2023-04-24T01:18:09.079Z,98921.97
2023-04-24T01:19:42.104Z,98912.22
2023-04-24T01:21:18.633Z,98916.63
2023-04-24T01:22:53.801Z,98915.69
2023-04-24T01:24:30.606Z,98907.88
2023-04-24T01:26:04.336Z,98905.31
2023-04-24T01:27:37.773Z,98908.91
2023-04-24T01:29:11.776Z,98908.28
2023-04-24T01:30:45.797Z,98887.38
2023-04-24T01:32:19.681Z,98900.16
2023-04-24T01:33:53.955Z,98892.09
2023-04-24T01:35:27.352Z,98899.81
2023-04-24T01:36:59.892Z,98901.44
2023-04-24T01:38:34.471Z,98901.44
2023-04-24T01:40:08.350Z,98900.50
2023-04-24T01:41:41.560Z,98890.72
2023-04-24T01:43:14.692Z,98887.31
2023-04-24T01:44:48.437Z,98892.66
2023-04-24T01:46:20.745Z,98895.41
2023-04-24T01:47:54.398Z,98902.44
2023-04-24T01:49:27.551Z,98902.34
2023-04-24T01:51:01.346Z,98885.75
2023-04-24T01:52:36.224Z,98898.88
2023-04-24T01:54:10.819Z,98892.59
2023-04-24T01:55:43.121Z,98890.66
2023-04-24T01:57:16.767Z,98885.56
2023-04-24T01:58:50.071Z,98898.00
2023-04-24T02:00:23.921Z,98895.28
2023-04-24T02:01:58.414Z,98897.75
2023-04-24T02:03:31.970Z,98905.28
2023-04-24T02:05:07.975Z,98904.03
2023-04-24T02:06:43.116Z,98902.25
2023-04-24T02:08:16.460Z,98903.00
2023-04-24T02:09:51.335Z,98887.91
2023-04-24T02:11:23.485Z,98895.59
2023-04-24T02:12:58.317Z,98883.97
2023-04-24T02:14:31.935Z,98882.06
2023-04-24T02:16:05.393Z,98871.41
2023-04-24T02:17:38.793Z,98879.22
2023-04-24T02:19:12.115Z,98881.75
2023-04-24T02:20:45.508Z,98878.03
2023-04-24T02:22:18.807Z,98870.94
2023-04-24T02:23:52.047Z,98873.56
2023-04-24T02:25:26.854Z,98870.31
2023-04-24T02:27:04.119Z,98871.41
2023-04-24T02:28:37.678Z,98875.84
2023-04-24T02:30:11.776Z,98885.59
2023-04-24T02:31:45.176Z,98898.56
2023-04-24T02:33:21.627Z,98876.69
2023-04-24T02:34:55.264Z,98862.81
2023-04-24T02:36:28.615Z,98857.66
2023-04-24T02:38:00.767Z,98855.94
2023-04-24T02:39:34.417Z,98851.81
2023-04-24T02:41:09.148Z,98854.59
2023-04-24T02:42:41.499Z,98861.50
2023-04-24T02:44:14.773Z,98860.44
2023-04-24T02:45:48.441Z,98856.16
2023-04-24T02:47:22.090Z,98852.03
2023-04-24T02:48:56.195Z,98845.91
2023-04-24T02:50:31.175Z,98849.47
2023-04-24T02:52:04.766Z,98864.50
2023-04-24T02:53:38.081Z,98868.19
2023-04-24T02:55:11.753Z,98874.41
2023-04-24T02:56:46.573Z,98855.28
2023-04-24T02:58:21.159Z,98862.34
2023-04-24T02:59:54.372Z,98876.25
2023-04-24T03:01:29.264Z,98871.59
2023-04-24T03:03:03.943Z,98855.59
2023-04-24T03:04:37.765Z,98858.19
2023-04-24T03:06:11.091Z,98870.50
2023-04-24T03:07:44.445Z,98861.50
2023-04-24T03:09:16.790Z,98857.88
2023-04-24T03:10:50.830Z,98856.84
2023-04-24T03:12:25.879Z,98856.25
2023-04-24T03:13:59.013Z,98860.53
2023-04-24T03:15:32.370Z,98861.59
2023-04-24T03:17:04.837Z,98863.31
2023-04-24T03:18:38.057Z,98851.06
2023-04-24T03:20:13.200Z,98856.25
2023-04-24T03:21:46.811Z,98857.13
2023-04-24T03:23:20.403Z,98856.25
2023-04-24T03:24:55.968Z,98862.44
2023-04-24T03:26:28.457Z,98870.28
2023-04-24T03:28:15.403Z,98877.94
2023-04-24T03:29:56.808Z,98873.66
2023-04-24T03:31:37.367Z,98871.63
2023-04-24T03:33:11.124Z,98867.91
2023-04-24T03:34:51.239Z,98872.94
2023-04-24T03:36:24.958Z,98871.88
2023-04-24T03:37:58.166Z,98874.38
2023-04-24T03:39:50.193Z,98869.28
2023-04-24T03:41:28.533Z,98872.16
2023-04-24T03:43:08.810Z,98868.59
2023-04-24T03:44:42.761Z,98876.34
2023-04-24T03:46:16.428Z,98874.47
2023-04-24T03:47:59.152Z,98873.41
2023-04-24T03:49:32.761Z,98876.97
2023-04-24T03:51:06.329Z,98881.56
2023-04-24T03:52:41.160Z,98879.63
2023-04-24T03:54:15.249Z,98884.81
2023-04-24T03:55:48.704Z,98884.72
2023-04-24T03:57:21.978Z,98895.03
2023-04-24T03:59:08.388Z,98898.34
2023-04-24T04:00:45.826Z,98899.13
2023-04-24T04:02:39.498Z,98901.75
2023-04-24T04:04:12.129Z,98902.44
2023-04-24T04:05:46.836Z,98905.84
2023-04-24T04:07:20.330Z,98911.88
2023-04-24T04:08:53.550Z,98909.97
2023-04-24T04:10:26.962Z,98904.47
2023-04-24T04:12:01.728Z,98902.53
2023-04-24T04:13:36.078Z,98899.72
2023-04-24T04:15:09.712Z,98896.19
2023-04-24T04:16:43.554Z,98911.47
2023-04-24T04:18:17.603Z,98904.78
2023-04-24T04:19:50.785Z,98903.16
2023-04-24T04:21:24.343Z,98900.69
2023-04-24T04:23:03.163Z,98897.13
2023-04-24T04:24:48.238Z,98898.75
2023-04-24T04:26:22.272Z,98900.22
2023-04-24T04:28:25.833Z,98894.78
2023-04-24T04:30:00.522Z,98898.88
2023-04-24T04:31:33.925Z,98896.78
2023-04-24T04:33:13.274Z,98906.84
2023-04-24T04:34:47.402Z,98910.94
2023-04-24T04:36:19.987Z,98898.22
2023-04-24T04:37:59.976Z,98904.88
2023-04-24T04:39:54.640Z,98906.88
2023-04-24T04:41:31.446Z,98903.91
2023-04-24T04:43:06.522Z,98922.50
2023-04-24T04:44:48.409Z,98925.38
2023-04-24T04:46:28.154Z,98926.50
2023-04-24T04:48:10.186Z,98927.09
2023-04-24T04:49:45.786Z,98924.97
2023-04-24T04:51:28.458Z,98908.78
2023-04-24T04:53:01.886Z,98918.94
2023-04-24T04:54:39.959Z,98921.09
2023-04-24T04:56:13.220Z,98914.66
2023-04-24T04:57:48.828Z,98908.69
2023-04-24T04:59:22.076Z,98917.22
2023-04-24T05:00:59.639Z,98918.78
2023-04-24T05:02:37.474Z,98914.13
2023-04-24T05:04:11.030Z,98907.03
2023-04-24T05:05:46.146Z,98909.13
2023-04-24T05:07:21.950Z,98907.59
2023-04-24T05:08:58.787Z,98910.72
2023-04-24T05:10:42.255Z,98921.78
2023-04-24T05:12:16.121Z,98916.31
2023-04-24T05:13:57.093Z,98896.63
2023-04-24T05:15:39.343Z,98903.09
2023-04-24T05:17:12.853Z,98904.84
2023-04-24T05:18:46.932Z,98894.16
2023-04-24T05:20:24.046Z,98889.25
2023-04-24T05:21:58.640Z,98888.66
2023-04-24T05:23:32.460Z,98897.69
2023-04-24T05:25:06.836Z,98888.34
2023-04-24T05:26:55.075Z,98898.97
2023-04-24T05:28:32.489Z,98906.22
2023-04-24T05:30:13.907Z,98901.44
2023-04-24T05:31:47.285Z,98886.50
2023-04-24T05:33:20.963Z,98889.25
2023-04-24T05:34:54.087Z,98894.19
2023-04-24T05:36:28.139Z,98885.44
2023-04-24T05:38:03.105Z,98885.59
2023-04-24T05:39:37.063Z,98894.94
2023-04-24T05:41:10.239Z,98890.75
2023-04-24T05:42:43.418Z,98879.31
2023-04-24T05:44:16.588Z,98888.78
2023-04-24T05:45:50.321Z,98891.41
2023-04-24T05:47:25.032Z,98882.88
2023-04-24T05:48:59.328Z,98885.81
2023-04-24T05:50:34.003Z,98885.66
2023-04-24T05:52:10.058Z,98885.06
2023-04-24T05:53:46.554Z,98893.81
2023-04-24T05:55:19.771Z,98880.88
2023-04-24T05:56:55.541Z,98884.47
2023-04-24T05:58:48.726Z,98880.78
2023-04-24T06:00:22.743Z,98881.81
2023-04-24T06:02:05.106Z,98874.84
2023-04-24T06:03:39.022Z,98880.16
2023-04-24T06:05:13.169Z,98875.63
2023-04-24T06:06:46.353Z,98875.81
2023-04-24T06:08:19.594Z,98883.19
2023-04-24T06:09:55.696Z,98896.22
2023-04-24T06:11:29.956Z,98896.03
2023-04-24T06:13:03.389Z,98901.69
2023-04-24T06:14:38.075Z,98901.78
2023-04-24T06:16:26.924Z,98901.19
2023-04-24T06:18:07.737Z,98901.94
2023-04-24T06:19:41.710Z,98900.53
2023-04-24T06:21:15.622Z,98904.28
2023-04-24T06:22:48.814Z,98901.16
2023-04-24T06:24:22.630Z,98891.09
2023-04-24T06:25:57.212Z,98895.66
2023-04-24T06:27:30.365Z,98889.19
2023-04-24T06:29:04.141Z,98892.25
2023-04-24T06:30:37.774Z,98893.63
2023-04-24T06:32:11.060Z,98895.59
2023-04-24T06:33:44.766Z,98893.38
2023-04-24T06:35:17.957Z,98892.69
2023-04-24T06:36:51.483Z,98887.28
2023-04-24T06:38:24.672Z,98879.34
2023-04-24T06:39:57.988Z,98882.22
2023-04-24T06:41:32.554Z,98873.69
2023-04-24T06:43:07.463Z,98870.47
2023-04-24T06:44:42.717Z,98872.63
2023-04-24T06:46:16.098Z,98869.53
2023-04-24T06:47:49.343Z,98867.41
2023-04-24T06:49:22.991Z,98867.50
2023-04-24T06:50:56.116Z,98869.31
2023-04-24T06:52:29.377Z,98872.66
2023-04-24T06:54:02.941Z,98863.84
2023-04-24T06:55:37.797Z,98873.63
2023-04-24T06:57:12.528Z,98867.81
2023-04-24T06:58:46.262Z,98867.31
2023-04-24T07:00:19.757Z,98862.16
2023-04-24T07:01:55.160Z,98860.28
2023-04-24T07:03:28.972Z,98862.50
2023-04-24T07:05:02.344Z,98864.84
2023-04-24T07:06:36.508Z,98864.22
2023-04-24T07:08:12.827Z,98868.88
2023-04-24T07:09:46.695Z,98866.81
2023-04-24T07:11:19.794Z,98870.03
2023-04-24T07:12:55.090Z,98860.94
2023-04-24T07:14:28.676Z,98868.00
2023-04-24T07:16:01.870Z,98865.66
2023-04-24T07:17:34.998Z,98857.88
2023-04-24T07:19:08.178Z,98873.69
2023-04-24T07:20:42.048Z,98871.88
2023-04-24T07:22:17.970Z,98879.50
2023-04-24T07:23:51.210Z,98873.06
2023-04-24T07:25:24.373Z,98875.94
2023-04-24T07:26:58.210Z,98866.97
2023-04-24T07:28:33.123Z,98873.84
2023-04-24T07:30:07.919Z,98871.94
2023-04-24T07:31:42.228Z,98873.06
2023-04-24T07:33:15.998Z,98876.19
2023-04-24T07:34:49.338Z,98874.19
2023-04-24T07:36:22.514Z,98869.22
2023-04-24T07:37:55.927Z,98865.31
2023-04-24T07:39:30.371Z,98869.50
2023-04-24T07:41:03.746Z,98866.50
2023-04-24T07:42:37.825Z,98876.06
2023-04-24T07:44:12.485Z,98867.13
2023-04-24T07:45:46.501Z,98872.78
2023-04-24T07:47:19.935Z,98871.16
2023-04-24T07:49:02.107Z,98875.00
2023-04-24T07:50:45.299Z,98873.28
2023-04-24T07:52:19.107Z,98875.00
2023-04-24T07:53:52.471Z,98871.72
2023-04-24T07:55:28.129Z,98876.66
2023-04-24T07:57:02.481Z,98868.41
2023-04-24T07:58:36.149Z,98870.06
2023-04-24T08:00:12.248Z,98866.88
2023-04-24T08:01:46.661Z,98865.22
2023-04-24T08:03:21.267Z,98853.63
2023-04-24T08:04:55.817Z,98858.25
2023-04-24T08:06:31.511Z,98861.22
2023-04-24T08:08:05.088Z,98852.44
2023-04-24T08:09:38.871Z,98842.38
2023-04-24T08:11:12.816Z,98847.13
2023-04-24T08:12:46.340Z,98838.97
2023-04-24T08:14:19.609Z,98845.72
2023-04-24T08:15:54.943Z,98834.31
2023-04-24T08:17:28.453Z,98823.88
2023-04-24T08:19:01.714Z,98834.03
2023-04-24T08:20:35.073Z,98832.44
2023-04-24T08:22:08.225Z,98843.22
2023-04-24T08:23:41.792Z,98843.97
2023-04-24T08:25:15.225Z,98853.22
2023-04-24T08:26:51.323Z,98855.03
2023-04-24T08:28:24.517Z,98865.69
2023-04-24T08:29:59.694Z,98848.31
2023-04-24T08:31:34.569Z,98840.09
2023-04-24T08:33:08.296Z,98840.78
2023-04-24T08:34:41.719Z,98840.81
2023-04-24T08:36:15.618Z,98842.31
2023-04-24T08:37:48.862Z,98836.03
2023-04-24T08:39:22.481Z,98838.81
2023-04-24T08:40:55.887Z,98833.69
2023-04-24T08:42:33.035Z,98838.66
2023-04-24T08:44:07.959Z,98837.13
2023-04-24T08:45:42.790Z,98833.50
2023-04-24T08:47:18.118Z,98827.72
2023-04-24T08:48:53.734Z,98824.44
2023-04-24T08:50:27.309Z,98826.41
2023-04-24T08:52:01.814Z,98816.06
2023-04-24T08:53:35.594Z,98829.06
2023-04-24T08:55:10.234Z,98823.25
2023-04-24T08:56:46.367Z,98832.94
2023-04-24T08:58:20.517Z,98825.31
2023-04-24T08:59:54.914Z,98831.81
2023-04-24T09:01:30.172Z,98824.66
2023-04-24T09:03:07.348Z,98822.47
2023-04-24T09:04:42.639Z,98819.19
2023-04-24T09:06:16.758Z,98821.34
2023-04-24T09:07:55.872Z,98828.06
2023-04-24T09:09:33.014Z,98819.00
2023-04-24T09:11:06.365Z,98818.00
2023-04-24T09:12:39.515Z,98810.03
2023-04-24T09:14:13.244Z,98816.44
2023-04-24T09:15:46.490Z,98818.34
2023-04-24T09:17:19.620Z,98806.13
2023-04-24T09:18:54.840Z,98812.69
2023-04-24T09:20:28.343Z,98811.00
2023-04-24T09:22:01.514Z,98812.53
2023-04-24T09:23:35.027Z,98810.13
2023-04-24T09:25:10.404Z,98800.13
2023-04-24T09:26:44.853Z,98807.25
2023-04-24T09:28:18.465Z,98801.13
2023-04-24T09:29:57.796Z,98807.63
2023-04-24T09:31:31.723Z,98808.03
2023-04-24T09:33:16.320Z,98801.41
2023-04-24T09:34:52.035Z,98812.81
2023-04-24T09:36:34.102Z,98804.25
2023-04-24T09:38:07.352Z,98811.16
2023-04-24T09:39:40.828Z,98801.00
2023-04-24T09:41:16.219Z,98803.31
2023-04-24T09:42:54.320Z,98800.88
2023-04-24T09:44:29.218Z,98798.81
2023-04-24T09:46:08.253Z,98794.56
2023-04-24T09:47:41.837Z,98785.72
2023-04-24T09:49:17.314Z,98788.03
2023-04-24T09:50:54.580Z,98782.88
2023-04-24T09:52:27.876Z,98783.06
2023-04-24T09:54:01.027Z,98789.78
2023-04-24T09:55:34.194Z,98783.00
2023-04-24T09:57:10.139Z,98783.50
2023-04-24T09:58:43.548Z,98785.72
2023-04-24T10:00:21.675Z,98792.41
2023-04-24T10:01:55.609Z,98784.06
2023-04-24T10:03:32.036Z,98774.72
2023-04-24T10:05:06.513Z,98779.66
2023-04-24T10:06:44.802Z,98789.47
2023-04-24T10:08:20.324Z,98788.03
2023-04-24T10:09:54.325Z,98779.22
2023-04-24T10:11:29.154Z,98783.16
2023-04-24T10:13:02.799Z,98788.53
2023-04-24T10:14:35.989Z,98783.06
2023-04-24T10:16:09.684Z,98776.13
2023-04-24T10:17:43.363Z,98773.19
2023-04-24T10:19:17.226Z,98777.19
2023-04-24T10:20:50.775Z,98777.50
2023-04-24T10:22:25.936Z,98774.22
2023-04-24T10:24:01.291Z,98766.75
2023-04-24T10:25:36.499Z,98767.53
2023-04-24T10:27:11.465Z,98777.44
2023-04-24T10:28:46.986Z,98774.50
2023-04-24T10:30:21.726Z,98778.63
2023-04-24T10:31:55.073Z,98786.28
2023-04-24T10:33:28.906Z,98769.59
2023-04-24T10:35:02.311Z,98770.72
2023-04-24T10:36:37.519Z,98771.88
2023-04-24T10:38:15.731Z,98775.28
2023-04-24T10:39:52.140Z,98768.91
2023-04-24T10:41:28.451Z,98760.81
2023-04-24T10:43:02.263Z,98761.91
2023-04-24T10:44:38.846Z,98770.66
2023-04-24T10:46:12.540Z,98756.75
2023-04-24T10:47:53.827Z,98761.72
2023-04-24T10:49:34.140Z,98750.31
2023-04-24T10:51:07.413Z,98758.41
2023-04-24T10:52:47.016Z,98753.19
2023-04-24T10:54:29.488Z,98755.38
2023-04-24T10:56:07.025Z,98748.56
2023-04-24T10:57:40.106Z,98749.16
2023-04-24T10:59:26.092Z,98751.44
2023-04-24T11:01:00.829Z,98734.41
2023-04-24T11:02:40.023Z,98735.28
2023-04-24T11:04:13.583Z,98730.72
2023-04-24T11:05:59.219Z,98729.16
2023-04-24T11:07:32.383Z,98727.31
2023-04-24T11:09:07.666Z,98724.50
2023-04-24T11:10:43.253Z,98723.94
2023-04-24T11:12:16.412Z,98727.63
2023-04-24T11:14:11.128Z,98719.06
2023-04-24T11:15:44.817Z,98714.91
2023-04-24T11:17:31.824Z,98723.84
2023-04-24T11:19:07.672Z,98718.31
2023-04-24T11:20:45.025Z,98716.91
2023-04-24T11:22:21.597Z,98716.03
2023-04-24T11:23:54.820Z,98709.97
2023-04-24T11:25:32.545Z,98711.28
2023-04-24T11:27:16.270Z,98714.53
2023-04-24T11:28:50.382Z,98702.91
2023-04-24T11:30:23.601Z,98701.75
2023-04-24T11:31:58.348Z,98704.88
2023-04-24T11:33:33.950Z,98704.72
2023-04-24T11:35:09.531Z,98706.44
2023-04-24T11:36:44.961Z,98700.66
2023-04-24T11:38:24.483Z,98703.75
2023-04-24T11:40:00.805Z,98695.56
2023-04-24T11:41:35.355Z,98693.56
2023-04-24T11:43:11.400Z,98688.31
2023-04-24T11:44:45.950Z,98689.81
2023-04-24T11:46:19.762Z,98680.41
2023-04-24T11:47:53.194Z,98686.66
2023-04-24T11:49:26.915Z,98683.19
2023-04-24T11:51:00.043Z,98686.41
2023-04-24T11:52:34.193Z,98680.72
2023-04-24T11:54:10.976Z,98677.00
2023-04-24T11:55:44.176Z,98671.72
2023-04-24T11:57:17.342Z,98672.81
2023-04-24T11:58:55.195Z,98671.63
2023-04-24T12:00:30.301Z,98675.56
2023-04-24T12:02:03.532Z,98671.72
2023-04-24T12:03:37.060Z,98661.25
2023-04-24T12:05:13.305Z,98666.03
2023-04-24T12:07:02.209Z,98662.53
2023-04-24T12:08:37.274Z,98664.81
2023-04-24T12:10:12.081Z,98648.81
2023-04-24T12:11:55.971Z,98640.81
2023-04-24T12:13:29.239Z,98637.25
2023-04-24T12:15:08.717Z,98646.00
2023-04-24T12:16:42.248Z,98639.22
2023-04-24T12:18:18.173Z,98632.91
2023-04-24T12:19:51.885Z,98634.91
2023-04-24T12:21:27.630Z,98630.22
2023-04-24T12:23:03.533Z,98627.50
2023-04-24T12:24:36.895Z,98626.06
2023-04-24T12:26:10.100Z,98615.94
2023-04-24T12:27:43.292Z,98619.31
2023-04-24T12:29:22.240Z,98611.13
2023-04-24T12:30:58.912Z,98618.56
2023-04-24T12:32:32.129Z,98610.31
2023-04-24T12:34:05.487Z,98612.00
2023-04-24T12:35:39.082Z,98613.94
2023-04-24T12:37:13.402Z,98604.22
2023-04-24T12:38:47.672Z,98604.03
2023-04-24T12:40:24.198Z,98595.06
2023-04-24T12:42:02.351Z,98589.97
2023-04-24T12:43:36.483Z,98586.84
2023-04-24T12:45:10.119Z,98588.34
2023-04-24T12:46:44.701Z,98575.34
2023-04-24T12:48:18.169Z,98583.06
2023-04-24T12:49:53.658Z,98578.78
2023-04-24T12:51:26.780Z,98578.47
2023-04-24T12:52:59.955Z,98569.06
2023-04-24T12:54:35.326Z,98558.66
2023-04-24T12:56:08.814Z,98558.28
2023-04-24T12:57:42.499Z,98562.53
2023-04-24T12:59:16.090Z,98556.25
2023-04-24T13:00:50.014Z,98563.38
2023-04-24T13:02:25.255Z,98562.28
2023-04-24T13:03:59.040Z,98554.59
2023-04-24T13:05:32.467Z,98554.59
2023-04-24T13:07:05.658Z,98543.88
2023-04-24T13:08:38.969Z,98545.97
2023-04-24T13:10:12.543Z,98537.41
2023-04-24T13:11:46.002Z,98541.41
2023-04-24T13:13:19.167Z,98545.09
2023-04-24T13:14:52.746Z,98537.09
2023-04-24T13:16:26.282Z,98534.84
2023-04-24T13:18:01.592Z,98532.00
2023-04-24T13:19:39.091Z,98529.66
2023-04-24T13:21:12.445Z,98527.38
2023-04-24T13:22:45.804Z,98524.28
2023-04-24T13:24:18.919Z,98511.78
2023-04-24T13:25:52.075Z,98513.31
2023-04-24T13:27:25.454Z,98507.16
2023-04-24T13:28:58.802Z,98502.50
2023-04-24T13:30:32.048Z,98513.00
2023-04-24T13:32:05.854Z,98509.19
2023-04-24T13:33:41.598Z,98507.72
2023-04-24T13:35:15.386Z,98504.03
2023-04-24T13:36:48.762Z,98502.97
2023-04-24T13:38:22.709Z,98501.59
2023-04-24T13:39:56.094Z,98492.47
2023-04-24T13:41:29.540Z,98490.78
2023-04-24T13:43:02.885Z,98494.16
2023-04-24T13:44:36.154Z,98488.63
2023-04-24T13:46:09.459Z,98493.84
2023-04-24T13:47:43.172Z,98486.81
2023-04-24T13:49:18.377Z,98496.63
2023-04-24T13:50:51.539Z,98488.56
2023-04-24T13:52:24.953Z,98495.69
2023-04-24T13:53:58.471Z,98482.03
2023-04-24T13:55:32.023Z,98496.00
2023-04-24T13:57:05.488Z,98493.34
2023-04-24T13:58:39.127Z,98479.31
2023-04-24T14:00:14.450Z,98483.09
2023-04-24T14:01:48.634Z,98484.78
2023-04-24T14:03:22.277Z,98486.38
2023-04-24T14:04:59.058Z,98488.28
2023-04-24T14:06:33.330Z,98480.47
2023-04-24T14:08:07.100Z,98475.06
2023-04-24T14:09:40.259Z,98477.38
2023-04-24T14:11:13.665Z,98473.31
2023-04-24T14:12:47.191Z,98478.00
2023-04-24T14:14:20.324Z,98472.59
2023-04-24T14:15:53.790Z,98476.84
2023-04-24T14:17:27.261Z,98472.59
2023-04-24T14:19:00.655Z,98466.19
2023-04-24T14:20:35.271Z,98466.25
2023-04-24T14:22:08.454Z,98468.28
2023-04-24T14:23:41.734Z,98464.94
2023-04-24T14:25:15.218Z,98468.69
2023-04-24T14:26:48.471Z,98457.97
2023-04-24T14:28:22.181Z,98448.28
2023-04-24T14:29:56.170Z,98456.66
2023-04-24T14:31:29.934Z,98455.84
2023-04-24T14:33:03.125Z,98460.94
2023-04-24T14:34:36.376Z,98464.50
2023-04-24T14:36:11.080Z,98460.34
2023-04-24T14:37:44.894Z,98451.50
2023-04-24T14:39:18.003Z,98459.88
2023-04-24T14:42:27.326Z,98454.78
2023-04-24T14:44:00.571Z,98454.44
2023-04-24T14:45:33.834Z,98452.69
2023-04-24T14:47:07.594Z,98452.28
2023-04-24T14:48:41.267Z,98457.31
2023-04-24T14:50:14.705Z,98455.41
2023-04-24T14:51:49.241Z,98448.09
2023-04-24T14:53:22.557Z,98452.19
2023-04-24T14:54:56.320Z,98446.16
2023-04-24T14:56:30.444Z,98446.16
2023-04-24T14:58:03.744Z,98439.69
2023-04-24T14:59:37.161Z,98451.69
2023-04-24T15:01:10.522Z,98446.03
2023-04-24T15:02:45.879Z,98446.66
2023-04-24T15:04:19.525Z,98443.13
2023-04-24T15:05:53.153Z,98444.13
2023-04-24T15:07:28.534Z,98441.88
2023-04-24T15:09:01.870Z,98435.94
2023-04-24T15:10:35.504Z,98441.06
2023-04-24T15:12:08.754Z,98441.66
2023-04-24T15:13:42.244Z,98445.66
2023-04-24T15:15:14.625Z,98449.31
2023-04-24T15:16:48.081Z,98449.31
2023-04-24T15:18:21.244Z,98441.72
2023-04-24T15:19:54.938Z,98462.72
2023-04-24T15:21:28.218Z,98451.53
2023-04-24T15:23:03.444Z,98455.72
2023-04-24T15:24:36.558Z,98453.50
2023-04-24T15:26:10.015Z,98482.28
2023-04-24T15:27:44.321Z,98494.34
2023-04-24T15:29:17.672Z,98505.13
2023-04-24T15:30:51.220Z,98523.53
2023-04-24T15:32:26.341Z,98533.72
2023-04-24T15:33:59.638Z,98534.25
2023-04-24T15:35:33.046Z,98540.31
2023-04-24T15:37:06.782Z,98559.22
2023-04-24T15:38:41.770Z,98558.72
2023-04-24T15:40:16.907Z,98561.75
2023-04-24T15:41:51.379Z,98566.09
2023-04-24T15:43:24.616Z,98568.78
2023-04-24T15:44:57.941Z,98564.84
2023-04-24T15:46:31.479Z,98574.78
2023-04-24T15:48:05.628Z,98579.13
2023-04-24T15:49:39.044Z,98579.59
2023-04-24T15:51:12.694Z,98575.63
2023-04-24T15:52:46.396Z,98585.78
2023-04-24T15:54:21.018Z,98589.97
2023-04-24T15:55:54.823Z,98585.94
2023-04-24T15:57:28.176Z,98591.75
2023-04-24T15:59:01.433Z,98600.28
2023-04-24T16:00:35.667Z,98606.31
2023-04-24T16:02:12.004Z,98614.41
2023-04-24T16:03:45.886Z,98617.56
2023-04-24T16:05:20.377Z,98605.41
2023-04-24T16:06:53.910Z,98611.34
2023-04-24T16:08:27.579Z,98611.56
2023-04-24T16:10:02.247Z,98610.00
2023-04-24T16:11:36.701Z,98603.81
2023-04-24T16:13:09.903Z,98606.16
2023-04-24T16:14:43.550Z,98609.16
2023-04-24T16:16:17.713Z,98598.47
2023-04-24T16:17:51.661Z,98586.91
2023-04-24T16:19:25.112Z,98594.84
2023-04-24T16:20:59.154Z,98590.75
2023-04-24T16:22:32.631Z,98585.41
2023-04-24T16:24:06.235Z,98569.25
2023-04-24T16:25:41.108Z,98568.06
2023-04-24T16:27:15.078Z,98554.91
2023-04-24T16:28:48.867Z,98556.28
2023-04-24T16:30:22.699Z,98544.00
2023-04-24T16:31:56.889Z,98533.47
2023-04-24T16:33:31.884Z,98537.31
2023-04-24T16:35:05.630Z,98534.09
2023-04-24T16:36:39.272Z,98531.34
2023-04-24T16:38:12.660Z,98535.31
2023-04-24T16:39:46.688Z,98517.72
2023-04-24T16:41:21.665Z,98515.47
2023-04-24T16:42:55.183Z,98503.63
2023-04-24T16:44:28.735Z,98507.09
2023-04-24T16:46:09.633Z,98495.66
2023-04-24T16:47:49.459Z,98486.47
2023-04-24T16:49:30.301Z,98480.44
2023-04-24T16:51:10.145Z,98481.88
2023-04-24T16:52:56.646Z,98474.63
2023-04-24T16:54:56.296Z,98475.25
2023-04-24T16:57:06.272Z,98472.63
2023-04-24T16:58:46.570Z,98462.38
2023-04-24T17:00:20.538Z,98460.66
2023-04-24T17:01:54.255Z,98447.81
2023-04-24T17:03:28.273Z,98459.91
2023-04-24T17:05:02.408Z,98448.97
2023-04-24T17:06:36.253Z,98451.53
2023-04-24T17:08:09.879Z,98451.44
2023-04-24T17:09:43.498Z,98458.56
2023-04-24T17:11:17.291Z,98454.97
2023-04-24T17:12:52.465Z,98455.78
2023-04-24T17:14:26.804Z,98455.69
2023-04-24T17:16:00.261Z,98456.66
2023-04-24T17:17:34.002Z,98446.88
2023-04-24T17:19:07.649Z,98444.78
2023-04-24T17:20:41.323Z,98452.34
2023-04-24T17:22:15.205Z,98453.09
2023-04-24T17:23:48.906Z,98456.63
2023-04-24T17:25:22.579Z,98471.81
2023-04-24T17:26:59.034Z,98478.44
2023-04-24T17:28:39.829Z,98492.28
2023-04-24T17:30:14.909Z,98469.09
2023-04-24T17:31:48.329Z,98468.03
2023-04-24T17:33:22.100Z,98481.44
2023-04-24T17:34:55.660Z,98492.97
2023-04-24T17:36:29.435Z,98496.25
2023-04-24T17:38:02.887Z,98487.44
2023-04-24T17:39:36.856Z,98477.84
2023-04-24T17:41:10.277Z,98474.03
2023-04-24T17:42:43.671Z,98490.00
2023-04-24T17:44:18.223Z,98476.56
2023-04-24T17:45:52.869Z,98473.81
2023-04-24T17:47:27.466Z,98473.81
2023-04-24T17:49:00.910Z,98482.75
2023-04-24T17:50:34.343Z,98480.63
2023-04-24T17:52:08.356Z,98475.13
2023-04-24T17:53:41.917Z,98474.28
2023-04-24T17:55:16.352Z,98475.97
2023-04-24T17:56:49.817Z,98480.44
2023-04-24T17:58:23.524Z,98478.94
2023-04-24T17:59:58.465Z,98473.63
2023-04-24T18:01:34.379Z,98477.03
2023-04-24T18:03:09.431Z,98485.13
2023-04-24T18:04:43.567Z,98475.31
2023-04-24T18:06:18.842Z,98478.31
2023-04-24T18:07:52.636Z,98474.69
2023-04-24T18:09:26.217Z,98490.00
2023-04-24T18:11:00.232Z,98476.13
2023-04-24T18:12:33.527Z,98497.03
2023-04-24T18:14:06.906Z,98498.72
2023-04-24T18:15:43.498Z,98509.38
2023-04-24T18:17:17.365Z,98512.44
2023-04-24T18:18:50.691Z,98513.00
2023-04-24T18:20:24.908Z,98520.78
2023-04-24T18:21:59.791Z,98509.16
2023-04-24T18:23:35.071Z,98513.53
2023-04-24T18:25:09.793Z,98510.88
2023-04-24T18:26:43.303Z,98516.97
2023-04-24T18:28:16.666Z,98510.88
2023-04-24T18:29:49.987Z,98510.88
2023-04-24T18:31:24.673Z,98520.16
2023-04-24T18:32:58.530Z,98523.03
2023-04-24T18:34:32.538Z,98522.63
2023-04-24T18:36:06.094Z,98515.13
2023-04-24T18:37:40.676Z,98518.50